sensor_id;sensor_type;location;lat;lon;timestamp;pressure;altitude;pressure_sealevel;temperature;humidity
70411;BME280;57832;46.038;11.398;2023-01-29T07:46:18;97744.84;;;-5.59;100.00
70411;BME280;57832;46.038;11.398;2023-01-29T07:48:44;97740.56;;;-5.70;100.00
70411;BME280;57832;46.038;11.398;2023-01-29T07:51:10;97744.72;;;-5.58;100.00
70411;BME280;57832;46.038;11.398;2023-01-29T07:53:35;97742.50;;;-5.51;100.00
70411;BME280;57832;46.038;11.398;2023-01-29T07:56:01;97745.19;;;-5.20;100.00
70411;BME280;57832;46.038;11.398;2023-01-29T07:58:27;97749.03;;;-5.26;100.00
70411;BME280;57832;46.038;11.398;2023-01-29T08:00:52;97749.53;;;-5.32;100.00
70411;BME280;57832;46.038;11.398;2023-01-29T08:03:19;97745.44;;;-5.23;100.00
70411;BME280;57832;46.038;11.398;2023-01-29T08:05:45;97736.25;;;-5.26;100.00
70411;BME280;57832;46.038;11.398;2023-01-29T08:08:11;97738.22;;;-5.18;100.00
70411;BME280;57832;46.038;11.398;2023-01-29T08:10:38;97735.91;;;-5.00;100.00
70411;BME280;57832;46.038;11.398;2023-01-29T08:13:04;97738.03;;;-4.84;100.00
70411;BME280;57832;46.038;11.398;2023-01-29T08:15:31;97732.38;;;-5.20;100.00
70411;BME280;57832;46.038;11.398;2023-01-29T08:17:57;97737.44;;;-5.30;100.00
70411;BME280;57832;46.038;11.398;2023-01-29T08:20:23;97745.72;;;-5.05;100.00
70411;BME280;57832;46.038;11.398;2023-01-29T08:22:48;97738.13;;;-5.07;100.00
70411;BME280;57832;46.038;11.398;2023-01-29T08:25:14;97733.81;;;-5.27;100.00
70411;BME280;57832;46.038;11.398;2023-01-29T08:27:40;97740.66;;;-4.95;100.00
70411;BME280;57832;46.038;11.398;2023-01-29T08:30:07;97750.44;;;-5.00;100.00
70411;BME280;57832;46.038;11.398;2023-01-29T08:32:33;97746.56;;;-5.48;100.00
70411;BME280;57832;46.038;11.398;2023-01-29T08:34:58;97748.31;;;-5.49;100.00
70411;BME280;57832;46.038;11.398;2023-01-29T08:37:24;97734.56;;;-5.48;100.00
70411;BME280;57832;46.038;11.398;2023-01-29T08:39:49;97749.81;;;-5.46;100.00
70411;BME280;57832;46.038;11.398;2023-01-29T08:42:15;97743.13;;;-5.26;100.00
70411;BME280;57832;46.038;11.398;2023-01-29T08:44:40;97747.59;;;-5.40;100.00
70411;BME280;57832;46.038;11.398;2023-01-29T08:47:06;97752.53;;;-5.71;100.00
70411;BME280;57832;46.038;11.398;2023-01-29T08:49:31;97757.13;;;-5.42;100.00
70411;BME280;57832;46.038;11.398;2023-01-29T08:51:57;97764.59;;;-5.50;100.00
70411;BME280;57832;46.038;11.398;2023-01-29T08:54:23;97760.97;;;-5.59;100.00
70411;BME280;57832;46.038;11.398;2023-01-29T08:56:49;97765.97;;;-5.46;100.00
70411;BME280;57832;46.038;11.398;2023-01-29T08:59:14;97765.44;;;-5.28;100.00
70411;BME280;57832;46.038;11.398;2023-01-29T09:01:40;97769.81;;;-5.08;100.00
70411;BME280;57832;46.038;11.398;2023-01-29T09:04:05;97769.78;;;-4.87;100.00
70411;BME280;57832;46.038;11.398;2023-01-29T09:06:31;97770.38;;;-4.83;100.00
70411;BME280;57832;46.038;11.398;2023-01-29T09:08:57;97771.25;;;-4.94;100.00
70411;BME280;57832;46.038;11.398;2023-01-29T09:11:22;97764.19;;;-4.80;100.00
70411;BME280;57832;46.038;11.398;2023-01-29T09:13:48;97756.16;;;-4.76;100.00
70411;BME280;57832;46.038;11.398;2023-01-29T09:16:13;97751.22;;;-4.67;100.00
70411;BME280;57832;46.038;11.398;2023-01-29T09:18:39;97752.19;;;-4.59;100.00
70411;BME280;57832;46.038;11.398;2023-01-29T09:21:04;97744.81;;;-4.52;100.00
70411;BME280;57832;46.038;11.398;2023-01-29T09:23:30;97750.16;;;-4.44;100.00
70411;BME280;57832;46.038;11.398;2023-01-29T09:25:56;97745.31;;;-4.37;100.00
70411;BME280;57832;46.038;11.398;2023-01-29T09:28:22;97741.50;;;-4.43;100.00
70411;BME280;57832;46.038;11.398;2023-01-29T09:30:48;97746.75;;;-4.44;100.00
70411;BME280;57832;46.038;11.398;2023-01-29T09:33:13;97738.28;;;-4.45;100.00
70411;BME280;57832;46.038;11.398;2023-01-29T09:35:40;97731.38;;;-4.44;100.00
70411;BME280;57832;46.038;11.398;2023-01-29T09:38:07;97732.91;;;-4.32;100.00
70411;BME280;57832;46.038;11.398;2023-01-29T09:40:59;97741.75;;;-4.15;100.00
70411;BME280;57832;46.038;11.398;2023-01-29T09:44:02;97740.06;;;-3.95;100.00
70411;BME280;57832;46.038;11.398;2023-01-29T09:49:11;97734.81;;;-3.93;100.00
70411;BME280;57832;46.038;11.398;2023-01-29T09:51:50;97744.41;;;-3.86;100.00
70411;BME280;57832;46.038;11.398;2023-01-29T09:54:20;97726.66;;;-3.67;100.00
70411;BME280;57832;46.038;11.398;2023-01-29T09:56:54;97735.94;;;-3.86;100.00
70411;BME280;57832;46.038;11.398;2023-01-29T09:59:23;97722.47;;;-3.68;100.00
70411;BME280;57832;46.038;11.398;2023-01-29T10:02:09;97724.75;;;-3.65;100.00
70411;BME280;57832;46.038;11.398;2023-01-29T10:11:20;97713.88;;;-3.28;100.00
70411;BME280;57832;46.038;11.398;2023-01-29T10:14:00;97706.81;;;-3.07;100.00
70411;BME280;57832;46.038;11.398;2023-01-29T10:16:38;97698.09;;;-2.57;100.00
70411;BME280;57832;46.038;11.398;2023-01-29T10:19:34;97688.78;;;-1.74;100.00
70411;BME280;57832;46.038;11.398;2023-01-29T10:22:43;97680.41;;;-0.78;100.00
70411;BME280;57832;46.038;11.398;2023-01-29T10:25:09;97673.34;;;1.66;100.00
70411;BME280;57832;46.038;11.398;2023-01-29T10:27:39;97665.34;;;7.00;100.00
70411;BME280;57832;46.038;11.398;2023-01-29T10:30:07;97666.31;;;10.07;100.00
70411;BME280;57832;46.038;11.398;2023-01-29T10:32:36;97662.91;;;8.50;100.00
70411;BME280;57832;46.038;11.398;2023-01-29T10:35:12;97647.88;;;7.28;100.00
70411;BME280;57832;46.038;11.398;2023-01-29T10:37:41;97639.53;;;3.75;100.00
70411;BME280;57832;46.038;11.398;2023-01-29T10:40:21;97642.72;;;4.29;100.00
70411;BME280;57832;46.038;11.398;2023-01-29T10:43:21;97630.16;;;4.76;100.00
70411;BME280;57832;46.038;11.398;2023-01-29T10:48:47;97622.03;;;4.57;100.00
70411;BME280;57832;46.038;11.398;2023-01-29T10:54:27;97607.59;;;5.88;100.00
70411;BME280;57832;46.038;11.398;2023-01-29T10:57:33;97592.28;;;8.18;100.00
70411;BME280;57832;46.038;11.398;2023-01-29T11:00:07;97581.53;;;14.11;46.68
70411;BME280;57832;46.038;11.398;2023-01-29T11:02:42;97572.34;;;15.16;40.15
70411;BME280;57832;46.038;11.398;2023-01-29T11:05:24;97567.03;;;13.86;39.58
70411;BME280;57832;46.038;11.398;2023-01-29T11:08:15;97559.13;;;9.87;48.18
70411;BME280;57832;46.038;11.398;2023-01-29T11:10:52;97554.22;;;7.51;65.74
70411;BME280;57832;46.038;11.398;2023-01-29T11:13:31;97539.97;;;7.54;77.48
70411;BME280;57832;46.038;11.398;2023-01-29T11:15:59;97537.47;;;7.27;71.45
70411;BME280;57832;46.038;11.398;2023-01-29T11:18:25;97536.97;;;8.28;85.31
70411;BME280;57832;46.038;11.398;2023-01-29T11:21:02;97530.44;;;7.80;75.21
70411;BME280;57832;46.038;11.398;2023-01-29T11:23:32;97527.22;;;7.26;77.43
70411;BME280;57832;46.038;11.398;2023-01-29T11:25:59;97522.09;;;8.53;67.53
70411;BME280;57832;46.038;11.398;2023-01-29T11:28:38;97521.47;;;6.97;84.64
70411;BME280;57832;46.038;11.398;2023-01-29T11:31:21;97512.81;;;9.01;57.06
70411;BME280;57832;46.038;11.398;2023-01-29T11:33:49;97505.47;;;10.32;45.19
70411;BME280;57832;46.038;11.398;2023-01-29T11:36:23;97500.28;;;13.53;40.08
70411;BME280;57832;46.038;11.398;2023-01-29T11:39:18;97499.84;;;12.61;35.54
70411;BME280;57832;46.038;11.398;2023-01-29T11:44:34;97505.59;;;8.97;43.73
70411;BME280;57832;46.038;11.398;2023-01-29T11:47:19;97505.03;;;8.95;53.36
70411;BME280;57832;46.038;11.398;2023-01-29T11:49:48;97483.50;;;9.60;48.94
70411;BME280;57832;46.038;11.398;2023-01-29T11:52:17;97485.25;;;8.04;54.59
70411;BME280;57832;46.038;11.398;2023-01-29T12:00:22;97473.31;;;8.84;51.22
70411;BME280;57832;46.038;11.398;2023-01-29T12:05:38;97466.44;;;7.64;56.06
70411;BME280;57832;46.038;11.398;2023-01-29T12:08:14;97465.63;;;9.57;51.60
70411;BME280;57832;46.038;11.398;2023-01-29T12:10:42;97460.56;;;10.64;45.45
70411;BME280;57832;46.038;11.398;2023-01-29T12:15:37;97449.41;;;12.13;38.96
70411;BME280;57832;46.038;11.398;2023-01-29T12:18:06;97455.28;;;9.74;42.89
70411;BME280;57832;46.038;11.398;2023-01-29T12:20:40;97467.25;;;8.47;49.38
70411;BME280;57832;46.038;11.398;2023-01-29T12:28:53;97441.28;;;8.27;56.90
70411;BME280;57832;46.038;11.398;2023-01-29T12:34:19;97435.81;;;8.53;58.25
70411;BME280;57832;46.038;11.398;2023-01-29T12:36:54;97442.16;;;8.83;53.60
70411;BME280;57832;46.038;11.398;2023-01-29T12:39:21;97438.53;;;8.40;51.51
70411;BME280;57832;46.038;11.398;2023-01-29T12:44:21;97421.09;;;10.70;44.03
70411;BME280;57832;46.038;11.398;2023-01-29T12:46:53;97416.16;;;9.91;42.49
70411;BME280;57832;46.038;11.398;2023-01-29T12:49:40;97408.41;;;7.62;51.54
70411;BME280;57832;46.038;11.398;2023-01-29T12:52:40;97413.22;;;7.90;55.00
70411;BME280;57832;46.038;11.398;2023-01-29T12:55:28;97402.63;;;8.29;56.34
70411;BME280;57832;46.038;11.398;2023-01-29T12:57:59;97394.75;;;8.10;54.83
70411;BME280;57832;46.038;11.398;2023-01-29T13:00:37;97388.16;;;8.89;52.76
70411;BME280;57832;46.038;11.398;2023-01-29T13:08:22;97379.84;;;8.61;50.70
70411;BME280;57832;46.038;11.398;2023-01-29T13:10:53;97366.81;;;11.29;43.61
70411;BME280;57832;46.038;11.398;2023-01-29T13:16:24;97360.53;;;11.30;38.63
70411;BME280;57832;46.038;11.398;2023-01-29T13:18:56;97363.81;;;9.61;44.57
70411;BME280;57832;46.038;11.398;2023-01-29T13:21:30;97358.88;;;9.41;45.51
70411;BME280;57832;46.038;11.398;2023-01-29T13:24:10;97363.38;;;9.22;48.34
70411;BME280;57832;46.038;11.398;2023-01-29T13:26:38;97360.41;;;7.88;52.83
70411;BME280;57832;46.038;11.398;2023-01-29T13:29:05;97364.13;;;7.74;56.17
70411;BME280;57832;46.038;11.398;2023-01-29T13:31:34;97358.25;;;8.03;58.32
70411;BME280;57832;46.038;11.398;2023-01-29T13:34:13;97359.53;;;7.44;59.08
70411;BME280;57832;46.038;11.398;2023-01-29T13:36:45;97360.03;;;7.27;59.64
70411;BME280;57832;46.038;11.398;2023-01-29T13:39:30;97352.97;;;7.34;62.65
70411;BME280;57832;46.038;11.398;2023-01-29T13:41:58;97352.91;;;7.73;58.88
70411;BME280;57832;46.038;11.398;2023-01-29T13:46:56;97343.88;;;7.12;65.45
70411;BME280;57832;46.038;11.398;2023-01-29T13:49:33;97342.06;;;6.67;67.49
70411;BME280;57832;46.038;11.398;2023-01-29T13:55:00;97339.38;;;6.87;69.62
70411;BME280;57832;46.038;11.398;2023-01-29T14:00:00;97340.59;;;6.26;67.88
70411;BME280;57832;46.038;11.398;2023-01-29T14:02:29;97337.63;;;6.09;68.83
70411;BME280;57832;46.038;11.398;2023-01-29T14:10:40;97341.22;;;5.74;77.94
70411;BME280;57832;46.038;11.398;2023-01-29T14:18:31;97343.25;;;5.52;76.93
70411;BME280;57832;46.038;11.398;2023-01-29T14:21:21;97344.25;;;5.98;82.43
70411;BME280;57832;46.038;11.398;2023-01-29T14:23:54;97352.44;;;5.88;73.09
70411;BME280;57832;46.038;11.398;2023-01-29T14:29:00;97342.41;;;5.92;89.65
70411;BME280;57832;46.038;11.398;2023-01-29T14:31:35;97344.00;;;5.32;100.00
70411;BME280;57832;46.038;11.398;2023-01-29T14:34:06;97345.94;;;4.97;100.00
70411;BME280;57832;46.038;11.398;2023-01-29T14:36:39;97349.94;;;4.93;100.00
70411;BME280;57832;46.038;11.398;2023-01-29T14:39:15;97352.16;;;5.02;100.00
70411;BME280;57832;46.038;11.398;2023-01-29T14:41:44;97346.22;;;5.35;100.00
70411;BME280;57832;46.038;11.398;2023-01-29T14:47:50;97349.13;;;4.92;100.00
70411;BME280;57832;46.038;11.398;2023-01-29T14:58:46;97333.81;;;4.62;100.00
70411;BME280;57832;46.038;11.398;2023-01-29T15:04:02;97337.47;;;4.68;100.00
70411;BME280;57832;46.038;11.398;2023-01-29T15:06:43;97342.66;;;4.26;100.00
70411;BME280;57832;46.038;11.398;2023-01-29T15:09:17;97342.78;;;3.83;100.00
70411;BME280;57832;46.038;11.398;2023-01-29T15:14:35;97345.97;;;4.13;100.00
70411;BME280;57832;46.038;11.398;2023-01-29T15:19:43;97350.91;;;4.01;100.00
70411;BME280;57832;46.038;11.398;2023-01-29T15:22:14;97352.91;;;4.06;100.00
70411;BME280;57832;46.038;11.398;2023-01-29T15:24:42;97350.75;;;3.81;100.00
70411;BME280;57832;46.038;11.398;2023-01-29T15:27:14;97352.97;;;3.56;100.00
70411;BME280;57832;46.038;11.398;2023-01-29T15:29:43;97354.00;;;3.62;100.00
70411;BME280;57832;46.038;11.398;2023-01-29T15:32:23;97351.84;;;3.22;100.00
70411;BME280;57832;46.038;11.398;2023-01-29T15:34:54;97350.06;;;2.86;100.00
70411;BME280;57832;46.038;11.398;2023-01-29T15:37:28;97354.56;;;2.62;100.00
70411;BME280;57832;46.038;11.398;2023-01-29T15:39:55;97347.81;;;2.61;100.00
70411;BME280;57832;46.038;11.398;2023-01-29T15:42:21;97347.63;;;2.33;100.00
70411;BME280;57832;46.038;11.398;2023-01-29T15:44:51;97343.34;;;2.25;100.00
70411;BME280;57832;46.038;11.398;2023-01-29T15:47:24;97347.81;;;2.31;100.00
70411;BME280;57832;46.038;11.398;2023-01-29T15:49:51;97341.66;;;2.32;100.00
70411;BME280;57832;46.038;11.398;2023-01-29T15:52:24;97336.03;;;1.99;100.00
70411;BME280;57832;46.038;11.398;2023-01-29T15:54:51;97344.88;;;1.66;100.00
70411;BME280;57832;46.038;11.398;2023-01-29T15:57:22;97343.63;;;1.62;100.00
70411;BME280;57832;46.038;11.398;2023-01-29T15:59:50;97347.22;;;1.61;100.00
70411;BME280;57832;46.038;11.398;2023-01-29T16:04:51;97350.34;;;1.72;100.00
70411;BME280;57832;46.038;11.398;2023-01-29T16:07:17;97353.19;;;1.62;100.00
70411;BME280;57832;46.038;11.398;2023-01-29T16:09:43;97363.81;;;1.21;100.00
70411;BME280;57832;46.038;11.398;2023-01-29T16:12:10;97364.78;;;0.96;100.00
70411;BME280;57832;46.038;11.398;2023-01-29T16:14:36;97365.28;;;0.60;100.00
70411;BME280;57832;46.038;11.398;2023-01-29T16:17:22;97376.75;;;0.97;100.00
70411;BME280;57832;46.038;11.398;2023-01-29T16:20:04;97375.59;;;1.00;100.00
70411;BME280;57832;46.038;11.398;2023-01-29T16:22:34;97383.59;;;0.82;100.00
70411;BME280;57832;46.038;11.398;2023-01-29T16:25:06;97382.72;;;0.58;100.00
70411;BME280;57832;46.038;11.398;2023-01-29T16:27:33;97382.09;;;0.48;100.00
70411;BME280;57832;46.038;11.398;2023-01-29T16:29:59;97374.78;;;0.60;100.00
70411;BME280;57832;46.038;11.398;2023-01-29T16:32:27;97380.78;;;0.60;100.00
70411;BME280;57832;46.038;11.398;2023-01-29T16:34:55;97381.09;;;0.57;100.00
70411;BME280;57832;46.038;11.398;2023-01-29T16:37:30;97381.47;;;0.46;100.00
70411;BME280;57832;46.038;11.398;2023-01-29T16:39:56;97388.75;;;0.34;100.00
70411;BME280;57832;46.038;11.398;2023-01-29T16:42:29;97396.06;;;0.14;100.00
70411;BME280;57832;46.038;11.398;2023-01-29T16:47:36;97401.56;;;-0.39;100.00
70411;BME280;57832;46.038;11.398;2023-01-29T16:53:02;97414.47;;;-0.30;100.00
70411;BME280;57832;46.038;11.398;2023-01-29T16:55:38;97421.88;;;-0.36;100.00
70411;BME280;57832;46.038;11.398;2023-01-29T16:58:14;97427.84;;;-0.52;100.00
70411;BME280;57832;46.038;11.398;2023-01-29T17:00:46;97432.81;;;-0.58;100.00
70411;BME280;57832;46.038;11.398;2023-01-29T17:03:14;97434.72;;;-0.60;100.00
70411;BME280;57832;46.038;11.398;2023-01-29T17:05:41;97433.88;;;-0.77;100.00
70411;BME280;57832;46.038;11.398;2023-01-29T17:08:14;97436.47;;;-0.77;100.00
70411;BME280;57832;46.038;11.398;2023-01-29T17:10:46;97440.63;;;-0.93;100.00
70411;BME280;57832;46.038;11.398;2023-01-29T17:13:20;97440.78;;;-0.94;100.00
70411;BME280;57832;46.038;11.398;2023-01-29T17:15:48;97438.06;;;-0.93;100.00
70411;BME280;57832;46.038;11.398;2023-01-29T17:18:21;97431.94;;;-0.92;100.00
70411;BME280;57832;46.038;11.398;2023-01-29T17:20:48;97442.75;;;-0.80;100.00
70411;BME280;57832;46.038;11.398;2023-01-29T17:23:14;97434.09;;;-1.13;100.00
70411;BME280;57832;46.038;11.398;2023-01-29T17:25:39;97435.94;;;-1.40;100.00
70411;BME280;57832;46.038;11.398;2023-01-29T17:28:05;97437.31;;;-1.20;100.00
70411;BME280;57832;46.038;11.398;2023-01-29T17:30:33;97432.25;;;-1.38;100.00
70411;BME280;57832;46.038;11.398;2023-01-29T17:33:11;97435.50;;;-1.27;100.00
70411;BME280;57832;46.038;11.398;2023-01-29T17:35:38;97441.97;;;-1.23;100.00
70411;BME280;57832;46.038;11.398;2023-01-29T17:38:04;97443.19;;;-1.36;100.00
70411;BME280;57832;46.038;11.398;2023-01-29T17:40:36;97439.00;;;-1.37;100.00
70411;BME280;57832;46.038;11.398;2023-01-29T17:43:03;97448.94;;;-1.42;100.00
70411;BME280;57832;46.038;11.398;2023-01-29T17:45:29;97453.16;;;-1.41;100.00
70411;BME280;57832;46.038;11.398;2023-01-29T17:47:55;97453.53;;;-1.54;100.00
70411;BME280;57832;46.038;11.398;2023-01-29T17:50:26;97453.47;;;-1.44;100.00
70411;BME280;57832;46.038;11.398;2023-01-29T17:52:52;97456.59;;;-1.58;100.00
70411;BME280;57832;46.038;11.398;2023-01-29T17:55:18;97451.25;;;-1.65;100.00
70411;BME280;57832;46.038;11.398;2023-01-29T17:57:44;97459.56;;;-1.71;100.00
70411;BME280;57832;46.038;11.398;2023-01-29T18:00:16;97457.13;;;-1.73;100.00
70411;BME280;57832;46.038;11.398;2023-01-29T18:02:43;97451.59;;;-1.60;100.00
70411;BME280;57832;46.038;11.398;2023-01-29T18:05:09;97455.38;;;-1.72;100.00
70411;BME280;57832;46.038;11.398;2023-01-29T18:07:36;97457.56;;;-2.04;100.00
70411;BME280;57832;46.038;11.398;2023-01-29T18:10:03;97455.44;;;-2.08;100.00
70411;BME280;57832;46.038;11.398;2023-01-29T18:12:29;97462.41;;;-2.00;100.00
70411;BME280;57832;46.038;11.398;2023-01-29T18:14:54;97461.41;;;-1.81;100.00
70411;BME280;57832;46.038;11.398;2023-01-29T18:17:20;97465.34;;;-1.95;100.00
70411;BME280;57832;46.038;11.398;2023-01-29T18:19:47;97471.47;;;-2.14;100.00
70411;BME280;57832;46.038;11.398;2023-01-29T18:22:13;97470.28;;;-2.20;100.00
70411;BME280;57832;46.038;11.398;2023-01-29T18:24:39;97470.66;;;-2.15;100.00
70411;BME280;57832;46.038;11.398;2023-01-29T18:27:04;97469.97;;;-1.99;100.00
70411;BME280;57832;46.038;11.398;2023-01-29T18:29:30;97462.28;;;-2.17;100.00
70411;BME280;57832;46.038;11.398;2023-01-29T18:31:55;97458.75;;;-2.16;100.00
70411;BME280;57832;46.038;11.398;2023-01-29T18:34:21;97467.13;;;-2.14;100.00
70411;BME280;57832;46.038;11.398;2023-01-29T18:36:46;97464.91;;;-2.09;100.00
70411;BME280;57832;46.038;11.398;2023-01-29T18:39:13;97466.38;;;-2.24;100.00
70411;BME280;57832;46.038;11.398;2023-01-29T18:41:39;97467.34;;;-2.43;100.00
70411;BME280;57832;46.038;11.398;2023-01-29T18:44:04;97468.75;;;-2.49;100.00
70411;BME280;57832;46.038;11.398;2023-01-29T18:46:30;97464.03;;;-2.54;100.00
70411;BME280;57832;46.038;11.398;2023-01-29T18:48:55;97470.16;;;-2.37;100.00
70411;BME280;57832;46.038;11.398;2023-01-29T18:51:21;97477.56;;;-2.33;100.00
70411;BME280;57832;46.038;11.398;2023-01-29T18:53:50;97473.88;;;-2.49;100.00
70411;BME280;57832;46.038;11.398;2023-01-29T18:56:16;97473.59;;;-2.64;100.00
70411;BME280;57832;46.038;11.398;2023-01-29T18:58:42;97476.16;;;-2.46;100.00
70411;BME280;57832;46.038;11.398;2023-01-29T19:01:10;97477.34;;;-2.22;100.00
70411;BME280;57832;46.038;11.398;2023-01-29T19:03:39;97473.28;;;-2.43;100.00
70411;BME280;57832;46.038;11.398;2023-01-29T19:06:07;97475.28;;;-2.37;100.00
70411;BME280;57832;46.038;11.398;2023-01-29T19:08:33;97474.59;;;-2.39;100.00
70411;BME280;57832;46.038;11.398;2023-01-29T19:10:59;97470.28;;;-2.38;100.00
70411;BME280;57832;46.038;11.398;2023-01-29T19:13:31;97478.38;;;-2.33;100.00
70411;BME280;57832;46.038;11.398;2023-01-29T19:15:57;97484.88;;;-2.39;100.00
70411;BME280;57832;46.038;11.398;2023-01-29T19:18:23;97481.00;;;-2.43;100.00
70411;BME280;57832;46.038;11.398;2023-01-29T19:20:52;97481.59;;;-2.49;100.00
70411;BME280;57832;46.038;11.398;2023-01-29T19:23:17;97487.53;;;-2.48;100.00
70411;BME280;57832;46.038;11.398;2023-01-29T19:25:43;97484.75;;;-2.83;100.00
70411;BME280;57832;46.038;11.398;2023-01-29T19:28:09;97487.34;;;-2.83;100.00
70411;BME280;57832;46.038;11.398;2023-01-29T19:30:34;97495.75;;;-2.91;100.00
70411;BME280;57832;46.038;11.398;2023-01-29T19:33:00;97486.72;;;-2.95;100.00
70411;BME280;57832;46.038;11.398;2023-01-29T19:35:26;97487.69;;;-2.96;100.00
70411;BME280;57832;46.038;11.398;2023-01-29T19:37:53;97495.34;;;-2.86;100.00
70411;BME280;57832;46.038;11.398;2023-01-29T19:40:19;97494.25;;;-2.83;100.00
70411;BME280;57832;46.038;11.398;2023-01-29T19:42:45;97501.88;;;-3.02;100.00
70411;BME280;57832;46.038;11.398;2023-01-29T19:45:11;97496.88;;;-3.03;100.00
70411;BME280;57832;46.038;11.398;2023-01-29T19:47:38;97503.91;;;-2.77;100.00
70411;BME280;57832;46.038;11.398;2023-01-29T19:50:09;97506.53;;;-3.15;100.00
70411;BME280;57832;46.038;11.398;2023-01-29T19:52:35;97504.41;;;-3.29;100.00
70411;BME280;57832;46.038;11.398;2023-01-29T19:55:05;97505.88;;;-3.27;100.00
70411;BME280;57832;46.038;11.398;2023-01-29T19:57:32;97510.22;;;-3.27;100.00
70411;BME280;57832;46.038;11.398;2023-01-29T20:00:01;97510.63;;;-3.32;100.00
70411;BME280;57832;46.038;11.398;2023-01-29T20:02:27;97512.09;;;-3.29;100.00
70411;BME280;57832;46.038;11.398;2023-01-29T20:04:55;97502.31;;;-3.06;100.00
70411;BME280;57832;46.038;11.398;2023-01-29T20:07:22;97510.72;;;-3.14;100.00
70411;BME280;57832;46.038;11.398;2023-01-29T20:09:48;97508.88;;;-3.31;100.00
70411;BME280;57832;46.038;11.398;2023-01-29T20:12:14;97518.31;;;-3.22;100.00
70411;BME280;57832;46.038;11.398;2023-01-29T20:14:40;97513.66;;;-3.09;100.00
70411;BME280;57832;46.038;11.398;2023-01-29T20:17:13;97511.81;;;-3.16;100.00
70411;BME280;57832;46.038;11.398;2023-01-29T20:19:40;97510.91;;;-2.97;100.00
70411;BME280;57832;46.038;11.398;2023-01-29T20:22:05;97511.81;;;-3.16;100.00
70411;BME280;57832;46.038;11.398;2023-01-29T20:24:31;97508.69;;;-3.10;100.00
70411;BME280;57832;46.038;11.398;2023-01-29T20:26:58;97501.84;;;-3.20;100.00
70411;BME280;57832;46.038;11.398;2023-01-29T20:29:25;97512.66;;;-3.26;100.00
70411;BME280;57832;46.038;11.398;2023-01-29T20:31:50;97505.53;;;-3.42;100.00
70411;BME280;57832;46.038;11.398;2023-01-29T20:34:16;97508.34;;;-3.35;100.00
70411;BME280;57832;46.038;11.398;2023-01-29T20:36:41;97507.31;;;-3.42;100.00
70411;BME280;57832;46.038;11.398;2023-01-29T20:39:07;97508.06;;;-3.32;100.00
70411;BME280;57832;46.038;11.398;2023-01-29T20:41:33;97512.50;;;-3.24;100.00
70411;BME280;57832;46.038;11.398;2023-01-29T20:43:59;97514.81;;;-3.31;100.00
70411;BME280;57832;46.038;11.398;2023-01-29T20:46:25;97515.91;;;-3.33;100.00
70411;BME280;57832;46.038;11.398;2023-01-29T20:48:51;97528.34;;;-3.39;100.00
70411;BME280;57832;46.038;11.398;2023-01-29T20:51:18;97525.66;;;-3.37;100.00
70411;BME280;57832;46.038;11.398;2023-01-29T20:53:45;97520.53;;;-3.37;100.00
70411;BME280;57832;46.038;11.398;2023-01-29T20:56:11;97524.78;;;-3.18;100.00
70411;BME280;57832;46.038;11.398;2023-01-29T20:58:37;97518.78;;;-3.56;100.00
70411;BME280;57832;46.038;11.398;2023-01-29T21:01:11;97518.41;;;-3.61;100.00
70411;BME280;57832;46.038;11.398;2023-01-29T21:03:38;97516.81;;;-3.62;100.00
70411;BME280;57832;46.038;11.398;2023-01-29T21:06:06;97512.63;;;-3.83;100.00
70411;BME280;57832;46.038;11.398;2023-01-29T21:08:32;97517.06;;;-3.75;100.00
70411;BME280;57832;46.038;11.398;2023-01-29T21:10:59;97519.91;;;-3.68;100.00
70411;BME280;57832;46.038;11.398;2023-01-29T21:13:25;97520.03;;;-3.60;100.00
70411;BME280;57832;46.038;11.398;2023-01-29T21:15:50;97515.06;;;-3.72;100.00
70411;BME280;57832;46.038;11.398;2023-01-29T21:18:16;97507.88;;;-3.58;100.00
70411;BME280;57832;46.038;11.398;2023-01-29T21:20:42;97512.22;;;-3.68;100.00
70411;BME280;57832;46.038;11.398;2023-01-29T21:23:07;97508.19;;;-3.81;100.00
70411;BME280;57832;46.038;11.398;2023-01-29T21:25:33;97511.41;;;-3.69;100.00
70411;BME280;57832;46.038;11.398;2023-01-29T21:27:58;97518.69;;;-3.64;100.00
70411;BME280;57832;46.038;11.398;2023-01-29T21:30:24;97516.81;;;-3.82;100.00
70411;BME280;57832;46.038;11.398;2023-01-29T21:32:50;97516.94;;;-3.93;100.00
70411;BME280;57832;46.038;11.398;2023-01-29T21:35:15;97519.53;;;-4.03;100.00
70411;BME280;57832;46.038;11.398;2023-01-29T21:37:41;97518.44;;;-3.81;100.00
70411;BME280;57832;46.038;11.398;2023-01-29T21:40:07;97518.31;;;-3.89;100.00
70411;BME280;57832;46.038;11.398;2023-01-29T21:42:33;97524.63;;;-3.93;100.00
70411;BME280;57832;46.038;11.398;2023-01-29T21:45:18;97522.22;;;-3.75;100.00
70411;BME280;57832;46.038;11.398;2023-01-29T21:47:44;97518.84;;;-3.95;100.00
70411;BME280;57832;46.038;11.398;2023-01-29T21:50:10;97521.25;;;-4.13;100.00
70411;BME280;57832;46.038;11.398;2023-01-29T21:52:36;97521.13;;;-4.22;100.00
70411;BME280;57832;46.038;11.398;2023-01-29T21:55:03;97515.88;;;-4.30;100.00
70411;BME280;57832;46.038;11.398;2023-01-29T21:57:28;97513.84;;;-4.46;100.00
70411;BME280;57832;46.038;11.398;2023-01-29T21:59:54;97511.97;;;-4.34;100.00
70411;BME280;57832;46.038;11.398;2023-01-29T22:02:21;97507.22;;;-4.39;100.00
70411;BME280;57832;46.038;11.398;2023-01-29T22:04:47;97511.69;;;-4.41;100.00
70411;BME280;57832;46.038;11.398;2023-01-29T22:07:14;97504.56;;;-4.37;100.00
70411;BME280;57832;46.038;11.398;2023-01-29T22:09:40;97509.41;;;-4.34;100.00
70411;BME280;57832;46.038;11.398;2023-01-29T22:12:06;97512.25;;;-4.27;100.00
70411;BME280;57832;46.038;11.398;2023-01-29T22:14:32;97504.00;;;-4.41;100.00
70411;BME280;57832;46.038;11.398;2023-01-29T22:16:58;97506.72;;;-4.32;100.00
70411;BME280;57832;46.038;11.398;2023-01-29T22:19:24;97506.81;;;-4.54;100.00
70411;BME280;57832;46.038;11.398;2023-01-29T22:21:52;97505.75;;;-4.51;100.00